createdAt,value
2023-01-26T00:01:45.066Z,3.55
2023-01-26T00:06:48.403Z,3.53
2023-01-26T00:11:52.876Z,3.51
2023-01-26T00:16:56.577Z,3.56
2023-01-26T00:22:00.081Z,3.55
2023-01-26T00:27:04.800Z,3.54
2023-01-26T00:38:49.155Z,3.48
2023-01-26T00:43:53.759Z,3.49
2023-01-26T00:48:57.470Z,3.48
2023-01-26T00:54:00.695Z,3.46
2023-01-26T00:59:05.986Z,3.46
2023-01-26T01:04:09.513Z,3.43
2023-01-26T01:09:13.193Z,3.34
2023-01-26T01:14:19.511Z,3.32
2023-01-26T01:19:23.669Z,3.32
2023-01-26T01:24:26.989Z,3.32
2023-01-26T01:29:31.539Z,3.32
2023-01-26T01:34:34.832Z,3.29
2023-01-26T01:39:38.074Z,3.31
2023-01-26T01:44:44.368Z,3.31
2023-01-26T01:49:52.576Z,3.29
2023-01-26T01:55:02.149Z,3.27
2023-01-26T02:00:11.747Z,3.22
2023-01-26T02:05:27.477Z,3.21
2023-01-26T02:10:32.196Z,3.23
2023-01-26T02:15:36.930Z,3.18
2023-01-26T02:20:47.662Z,3.19
2023-01-26T02:26:05.497Z,3.22
2023-01-26T02:31:11.332Z,3.21
2023-01-26T02:36:20.301Z,3.20
2023-01-26T02:41:38.839Z,3.21
2023-01-26T02:46:42.239Z,3.20
2023-01-26T02:51:45.567Z,3.22
2023-01-26T02:56:50.127Z,3.21
2023-01-26T03:01:54.676Z,3.20
2023-01-26T03:06:57.943Z,3.17
2023-01-26T03:12:02.721Z,3.13
2023-01-26T03:17:05.940Z,3.08
2023-01-26T03:22:28.249Z,2.93
2023-01-26T03:27:37.262Z,2.88
2023-01-26T03:32:40.822Z,2.83
2023-01-26T03:37:54.649Z,2.86
2023-01-26T03:43:17.125Z,2.84
2023-01-26T03:48:38.092Z,2.84
2023-01-26T03:53:58.833Z,2.77
2023-01-26T03:59:09.204Z,2.76
2023-01-26T04:04:30.082Z,2.77
2023-01-26T04:09:34.212Z,2.75
2023-01-26T04:14:56.415Z,2.75
2023-01-26T04:20:17.120Z,2.72
2023-01-26T04:25:22.293Z,2.70
2023-01-26T04:30:26.869Z,2.65
2023-01-26T04:35:30.078Z,2.68
2023-01-26T04:40:33.328Z,2.66
2023-01-26T04:45:37.854Z,2.61
2023-01-26T04:50:43.826Z,2.65
2023-01-26T04:55:49.304Z,2.64
2023-01-26T05:00:58.705Z,2.65
2023-01-26T05:06:05.132Z,2.63
2023-01-26T05:11:08.252Z,2.62
2023-01-26T05:16:14.430Z,2.65
2023-01-26T05:21:22.959Z,2.65
2023-01-26T05:26:26.648Z,2.67
2023-01-26T05:31:31.230Z,2.66
2023-01-26T05:36:34.734Z,2.65
2023-01-26T05:41:38.108Z,2.65
2023-01-26T05:46:45.753Z,2.64
2023-01-26T05:51:49.300Z,2.66
2023-01-26T05:56:53.407Z,2.66
2023-01-26T06:01:59.175Z,2.64
2023-01-26T06:07:02.272Z,2.66
2023-01-26T06:12:08.580Z,2.63
2023-01-26T06:17:14.670Z,2.62
2023-01-26T06:22:18.654Z,2.64
2023-01-26T06:27:22.006Z,2.63
2023-01-26T06:32:28.011Z,2.66
2023-01-26T06:37:31.265Z,2.65
2023-01-26T06:42:35.055Z,2.65
2023-01-26T06:47:39.630Z,2.67
2023-01-26T06:52:44.336Z,2.63
2023-01-26T06:57:47.901Z,2.66
2023-01-26T07:02:52.752Z,2.66
2023-01-26T07:07:55.944Z,2.67
2023-01-26T07:12:59.985Z,2.68
2023-01-26T07:18:04.996Z,2.72
2023-01-26T07:23:09.773Z,2.76
2023-01-26T07:28:13.451Z,2.74
2023-01-26T07:33:18.154Z,2.76
2023-01-26T07:38:21.620Z,2.74
2023-01-26T07:43:25.556Z,2.76
2023-01-26T07:48:31.538Z,2.79
2023-01-26T07:53:39.448Z,2.77
2023-01-26T07:58:42.723Z,2.79
2023-01-26T08:03:47.490Z,2.81
2023-01-26T08:08:53.706Z,2.80
2023-01-26T08:13:57.274Z,2.81
2023-01-26T08:19:02.954Z,2.81
2023-01-26T08:24:06.601Z,2.76
2023-01-26T08:29:10.095Z,2.73
2023-01-26T08:34:14.702Z,2.68
2023-01-26T08:39:18.056Z,2.72
2023-01-26T08:44:21.103Z,2.72
2023-01-26T08:49:25.689Z,2.68
2023-01-26T08:54:29.098Z,2.69
2023-01-26T08:59:32.394Z,2.69
2023-01-26T09:04:37.158Z,2.71
2023-01-26T09:09:41.697Z,2.65
2023-01-26T09:14:45.074Z,2.69
2023-01-26T09:19:49.767Z,2.65
2023-01-26T09:24:52.870Z,2.66
2023-01-26T09:29:56.545Z,2.68
2023-01-26T09:35:01.106Z,2.62
2023-01-26T09:40:04.529Z,2.63
2023-01-26T09:45:23.101Z,2.60
2023-01-26T09:50:31.930Z,2.60
2023-01-26T09:55:35.720Z,2.61
2023-01-26T10:00:45.402Z,2.65
2023-01-26T10:05:55.569Z,2.70
2023-01-26T10:11:03.113Z,2.70
2023-01-26T10:16:10.583Z,2.73
2023-01-26T10:21:16.925Z,2.72
2023-01-26T10:26:26.160Z,2.74
2023-01-26T10:31:32.621Z,2.77
2023-01-26T10:36:37.864Z,2.81
2023-01-26T10:41:41.463Z,2.81
2023-01-26T10:46:44.752Z,2.82
2023-01-26T10:52:08.416Z,2.87
2023-01-26T10:57:19.393Z,2.86
2023-01-26T11:02:27.720Z,2.85
2023-01-26T11:07:35.344Z,2.88
2023-01-26T11:12:38.445Z,2.90
2023-01-26T11:17:50.199Z,2.94
2023-01-26T11:23:03.122Z,2.93
2023-01-26T11:28:25.881Z,2.88
2023-01-26T11:33:37.780Z,2.88
2023-01-26T11:38:44.778Z,2.90
2023-01-26T11:44:08.030Z,2.94
2023-01-26T11:49:24.160Z,2.86
2023-01-26T11:54:47.330Z,2.84
2023-01-26T11:59:54.606Z,2.76
2023-01-26T12:05:01.116Z,2.77
2023-01-26T12:10:08.433Z,2.74
2023-01-26T12:15:15.275Z,2.68
2023-01-26T12:20:28.494Z,2.66
2023-01-26T12:25:36.811Z,2.65
2023-01-26T12:30:50.506Z,2.70
2023-01-26T12:36:09.933Z,2.67
2023-01-26T12:41:20.229Z,2.68
2023-01-26T12:46:24.862Z,2.68
2023-01-26T12:51:33.873Z,2.63
2023-01-26T12:56:43.612Z,2.61
2023-01-26T13:01:47.121Z,2.58
2023-01-26T13:07:03.324Z,2.53
2023-01-26T13:12:48.483Z,2.53
2023-01-26T13:17:57.189Z,2.42
2023-01-26T13:23:00.360Z,2.40
2023-01-26T13:28:13.792Z,2.31
2023-01-26T13:33:22.419Z,2.27
2023-01-26T13:38:34.987Z,2.18
2023-01-26T13:43:46.480Z,2.19
2023-01-26T13:48:51.519Z,2.15
2023-01-26T13:54:01.920Z,2.16
2023-01-26T13:59:13.392Z,2.16
2023-01-26T14:04:21.394Z,2.19
2023-01-26T14:09:27.659Z,2.19
2023-01-26T14:14:35.200Z,2.22
2023-01-26T14:19:41.802Z,2.21
2023-01-26T14:24:50.199Z,2.19
2023-01-26T14:29:54.770Z,2.17
2023-01-26T14:35:00.332Z,2.16
2023-01-26T14:40:21.777Z,2.26
2023-01-26T14:45:31.842Z,2.26
2023-01-26T14:50:37.194Z,2.26
2023-01-26T14:55:40.489Z,2.27
2023-01-26T15:00:49.801Z,2.25
2023-01-26T15:06:24.137Z,2.26
2023-01-26T15:11:47.697Z,2.24
2023-01-26T15:16:55.251Z,2.24
2023-01-26T15:21:58.412Z,2.20
2023-01-26T15:27:08.033Z,2.20
2023-01-26T15:32:32.428Z,2.25
2023-01-26T15:37:37.381Z,2.23
2023-01-26T15:42:41.439Z,2.26
2023-01-26T15:47:45.946Z,2.28
2023-01-26T15:52:49.095Z,2.29
2023-01-26T15:57:52.834Z,2.29
2023-01-26T16:02:58.611Z,2.31
2023-01-26T16:08:03.185Z,2.34
2023-01-26T16:13:10.757Z,2.31
2023-01-26T16:18:15.661Z,2.31
2023-01-26T16:23:23.828Z,2.26
2023-01-26T16:28:28.218Z,2.29
2023-01-26T16:33:33.172Z,2.29
2023-01-26T16:38:36.538Z,2.28
2023-01-26T16:43:42.025Z,2.25
2023-01-26T16:48:47.867Z,2.27
2023-01-26T16:53:51.492Z,2.30
2023-01-26T16:58:55.724Z,2.30
2023-01-26T17:04:04.382Z,2.29
2023-01-26T17:09:08.596Z,2.26
2023-01-26T17:14:13.293Z,2.20
2023-01-26T17:19:18.183Z,2.18
2023-01-26T17:24:22.871Z,2.13
2023-01-26T17:29:26.351Z,2.06
2023-01-26T17:34:30.864Z,2.10
2023-01-26T17:39:34.182Z,2.13
2023-01-26T17:44:37.570Z,2.12
2023-01-26T17:49:42.384Z,2.07
2023-01-26T17:54:45.527Z,2.01
2023-01-26T17:59:49.670Z,2.03
2023-01-26T18:04:54.455Z,2.06
2023-01-26T18:10:03.924Z,2.00
2023-01-26T18:15:08.540Z,2.02
2023-01-26T18:20:15.165Z,2.03
2023-01-26T18:25:21.108Z,2.03
2023-01-26T18:30:24.561Z,2.02
2023-01-26T18:35:29.465Z,1.98
2023-01-26T18:40:32.867Z,2.03
2023-01-26T18:45:36.475Z,2.06
2023-01-26T18:50:41.165Z,2.03
2023-01-26T18:55:44.455Z,2.04
2023-01-26T19:00:47.890Z,2.02
2023-01-26T19:05:52.974Z,2.01
2023-01-26T19:10:56.098Z,1.99
2023-01-26T19:15:59.290Z,2.03
2023-01-26T19:21:06.008Z,2.09
2023-01-26T19:26:14.228Z,2.03
2023-01-26T19:31:19.299Z,2.02
2023-01-26T19:36:24.975Z,2.01
2023-01-26T19:41:29.124Z,1.98
2023-01-26T19:46:32.524Z,1.93
2023-01-26T19:51:51.057Z,1.90
2023-01-26T19:56:54.428Z,1.92
2023-01-26T20:01:57.647Z,1.89
2023-01-26T20:07:14.340Z,1.84
2023-01-26T20:12:20.477Z,1.84
2023-01-26T20:17:26.962Z,1.86
2023-01-26T20:22:34.090Z,1.94
2023-01-26T20:27:37.470Z,1.95
2023-01-26T20:32:40.554Z,1.99
2023-01-26T20:37:48.251Z,1.96
2023-01-26T20:42:54.606Z,1.95
2023-01-26T20:47:59.695Z,1.97
2023-01-26T20:53:04.942Z,1.93
2023-01-26T20:58:08.893Z,1.90
2023-01-26T21:03:12.048Z,1.92
2023-01-26T21:08:16.619Z,1.95
2023-01-26T21:13:19.787Z,1.95
2023-01-26T21:18:23.235Z,1.93
2023-01-26T21:23:28.066Z,1.95
2023-01-26T21:28:32.270Z,1.92
2023-01-26T21:33:38.553Z,1.89
2023-01-26T21:38:48.684Z,1.88
2023-01-26T21:43:56.107Z,1.88
2023-01-26T21:49:00.091Z,1.88
2023-01-26T21:54:07.165Z,1.93
2023-01-26T21:59:14.733Z,1.88
2023-01-26T22:04:21.087Z,1.90
2023-01-26T22:09:27.468Z,1.91
2023-01-26T22:14:31.021Z,1.89
2023-01-26T22:19:34.232Z,1.94
2023-01-26T22:24:38.763Z,1.97
2023-01-26T22:29:43.290Z,2.01
2023-01-26T22:34:47.875Z,1.94
2023-01-26T22:39:52.404Z,1.97
2023-01-26T22:44:56.157Z,1.98
2023-01-26T22:49:59.894Z,1.97
2023-01-26T22:55:04.643Z,1.97
2023-01-26T23:00:09.759Z,1.99
2023-01-26T23:05:34.076Z,2.04
2023-01-26T23:10:39.183Z,2.06
2023-01-26T23:15:42.941Z,2.04
2023-01-26T23:20:46.115Z,2.03
2023-01-26T23:25:54.236Z,1.99
2023-01-26T23:30:58.856Z,1.97
2023-01-26T23:36:02.998Z,2.03
2023-01-26T23:41:08.637Z,2.02
2023-01-26T23:46:12.750Z,2.02
2023-01-26T23:51:16.667Z,2.02
2023-01-26T23:56:21.179Z,2.00
